Poplar Springs, Mississippi
Current Conditions -  °F | °C
As of 4:53 PM on Friday 28 Nov 2014 (Local Time) from KGWO Reporting Station
Clear Clear  
Wind Chill: 50°   Ceiling: Unl
Heat Index: 50°   Visibility: 10mi
Dew Point: 25°   Wind: 8mph
Humidity: 38%   Direction: 170°S
Pressure: 30.21"   Gusts: NA
Location:  33.3807°N, 89.5554°W
Report Text: KGWO 282253Z AUTO 17007KT 10SM CLR 10/M04 A3021 RMK AO2 SLP232 T01001039 TSNO
Loading
Personal Weather Stations






























Interactive Weather Map New forecast layout! Learn more

10-Day Weather Forecast

Advertisements
Track Severe Weather on mobile